This is the latest recevied weather packets stored in our database for station/object K7D3. If no packets are shown the sender has not sent any weather packets the latest 10 day(s).
| Time | Temp. | Humidity | Pressure | Rain* | Wind** | Luminosity | Snow |
|---|---|---|---|---|---|---|---|
| 1777589075 | 9.44° C | 33% | - | 0 mm | 2.68 m/s, 48° | - | - |
| 1777588596 | 9.44° C | 31% | - | 0 mm | 4.02 m/s, 24° | - | - |
| 1777588117 | 9.44° C | 31% | - | 0 mm | 4.02 m/s, 21° | - | - |
| 1777587635 | 9.44° C | 35% | - | 0 mm | 2.68 m/s, 6° | - | - |
| 1777587155 | 8.89° C | 34% | - | 0 mm | 2.68 m/s, 60° | - | - |
| 1777586676 | 8.33° C | 37% | - | 0 mm | 1.79 m/s, 8° | - | - |
| 1777586194 | 8.89° C | 35% | - | 0 mm | 1.79 m/s, 353° | - | - |
| 1777585714 | 8.89° C | 34% | - | 0 mm | 0 m/s | - | - |
| 1777585235 | 9.44° C | 34% | - | 0 mm | 3.58 m/s, 0° | - | - |
| 1777584752 | 8.89° C | 36% | - | 0 mm | 4.02 m/s, 65° | - | - |
| 1777584273 | 9.44° C | 37% | - | 0 mm | 3.58 m/s, 35° | - | - |
| 1777583795 | 9.44° C | 37% | - | 0 mm | 3.13 m/s, 80° | - | - |
| 1777583313 | 8.89° C | 37% | - | 0 mm | 1.79 m/s, 7° | - | - |
| 1777582834 | 9.44° C | 37% | - | 0 mm | 0.45 m/s, 83° | - | - |
| 1777582356 | 9.44° C | 35% | - | 0 mm | 2.24 m/s, 342° | - | - |
| 1777581873 | 9.44° C | 35% | - | 0 mm | 4.02 m/s, 343° | - | - |
| 1777581395 | 9.44° C | 38% | - | 0 mm | 1.79 m/s, 65° | - | - |
| 1777580916 | 8.89° C | 38% | - | 0 mm | 4.02 m/s, 100° | - | - |
| 1777580434 | 8.89° C | 38% | - | 0 mm | 4.92 m/s, 6° | - | - |
| 1777579955 | 8.89° C | 39% | - | 0 mm | 4.02 m/s, 25° | - | - |
| 1777579476 | 8.89° C | 41% | - | 0 mm | 1.34 m/s, 52° | - | - |
| 1777578994 | 8.89° C | 36% | - | 0 mm | 3.58 m/s, 65° | - | - |
| 1777578516 | 9.44° C | 38% | - | 0 mm | 4.92 m/s, 44° | - | - |
| 1777578037 | 9.44° C | 46% | - | 0 mm | 2.68 m/s, 59° | - | - |
| 1777577554 | 8.89° C | 44% | - | 0 mm | 1.34 m/s, 10° | - | - |
* Rain latest hour (hover to see other rain measurements)
** Current wind speed in m/s (hover to see current wind gust speed)